createdAt,value
2019-04-11T00:00:33.278Z,81.70
2019-04-11T00:03:03.006Z,81.70
2019-04-11T00:05:31.717Z,81.70
2019-04-11T00:08:01.702Z,81.60
2019-04-11T00:10:31.258Z,81.60
2019-04-11T00:13:01.120Z,81.70
2019-04-11T00:15:30.692Z,81.60
2019-04-11T00:17:59.277Z,81.70
2019-04-11T00:20:32.065Z,81.80
2019-04-11T00:23:01.697Z,82.00
2019-04-11T00:25:31.592Z,82.00
2019-04-11T00:28:01.451Z,82.00
2019-04-11T00:30:30.377Z,81.90
2019-04-11T00:33:00.086Z,81.80
2019-04-11T00:35:43.906Z,81.80
2019-04-11T00:37:59.311Z,81.90
2019-04-11T00:40:28.969Z,81.80
2019-04-11T00:42:58.819Z,81.80
2019-04-11T00:45:29.706Z,81.70
2019-04-11T00:47:59.533Z,81.70
2019-04-11T00:50:31.629Z,81.80
2019-04-11T00:53:01.374Z,81.70
2019-04-11T00:55:31.360Z,81.70
2019-04-11T00:58:01.292Z,81.50
2019-04-11T01:00:31.181Z,81.60
2019-04-11T01:03:00.016Z,81.60
2019-04-11T01:05:29.720Z,81.70
2019-04-11T01:07:59.590Z,81.70
2019-04-11T01:10:31.973Z,81.70
2019-04-11T01:13:00.830Z,81.30
2019-04-11T01:15:29.447Z,81.50
2019-04-11T01:17:58.052Z,81.60
2019-04-11T01:20:29.354Z,81.60
2019-04-11T01:22:58.467Z,81.50
2019-04-11T01:25:27.058Z,81.60
2019-04-11T01:27:58.479Z,81.80
2019-04-11T01:30:30.658Z,81.70
2019-04-11T01:33:00.291Z,81.70
2019-04-11T01:35:29.022Z,81.40
2019-04-11T01:37:57.848Z,82.00
2019-04-11T01:40:26.568Z,81.80
2019-04-11T01:42:55.497Z,81.70
2019-04-11T01:45:25.786Z,81.60
2019-04-11T01:47:59.534Z,81.70
2019-04-11T01:50:32.855Z,81.80
2019-04-11T01:53:00.567Z,81.70
2019-04-11T01:55:29.263Z,81.60
2019-04-11T01:57:58.255Z,81.50
2019-04-11T02:00:37.478Z,81.50
2019-04-11T02:03:08.841Z,81.50
2019-04-11T02:05:38.055Z,81.40
2019-04-11T02:08:07.100Z,81.40
2019-04-11T02:10:36.962Z,81.40
2019-04-11T02:13:05.868Z,81.40
2019-04-11T02:15:34.616Z,81.50
2019-04-11T02:18:03.373Z,81.50
2019-04-11T02:20:31.977Z,81.60
2019-04-11T02:23:02.557Z,81.70
2019-04-11T02:25:36.664Z,81.60
2019-04-11T02:28:06.653Z,81.50
2019-04-11T02:30:39.189Z,81.50
2019-04-11T02:33:09.396Z,81.60
2019-04-11T02:35:39.660Z,81.50
2019-04-11T02:38:09.505Z,81.40
2019-04-11T02:40:38.766Z,81.40
2019-04-11T02:43:09.199Z,81.20
2019-04-11T02:45:51.681Z,81.40
2019-04-11T02:48:10.078Z,81.30
2019-04-11T02:50:39.339Z,81.40
2019-04-11T02:53:09.659Z,81.40
2019-04-11T02:55:38.814Z,81.40
2019-04-11T02:58:08.094Z,81.20
2019-04-11T03:00:37.659Z,81.40
2019-04-11T03:03:08.491Z,81.20
2019-04-11T03:05:39.158Z,81.20
2019-04-11T03:08:11.529Z,81.20
2019-04-11T03:10:37.897Z,81.20
2019-04-11T03:13:08.263Z,81.20
2019-04-11T03:15:48.793Z,81.20
2019-04-11T03:18:10.053Z,81.50
2019-04-11T03:20:45.713Z,81.50
2019-04-11T03:23:10.795Z,81.40
2019-04-11T03:25:38.791Z,81.40
2019-04-11T03:28:14.103Z,81.40
2019-04-11T03:31:01.799Z,81.40
2019-04-11T03:34:09.559Z,81.20
2019-04-11T03:38:36.921Z,81.70
2019-04-11T03:41:00.591Z,81.60
2019-04-11T03:43:28.320Z,81.70
2019-04-11T03:46:01.879Z,81.60
2019-04-11T03:48:31.962Z,81.50
2019-04-11T03:50:44.866Z,81.60
2019-04-11T03:53:14.497Z,81.80
2019-04-11T03:55:43.956Z,81.80
2019-04-11T03:58:15.425Z,81.80
2019-04-11T04:00:50.395Z,81.60
2019-04-11T04:03:20.236Z,81.70
2019-04-11T04:05:49.346Z,81.90
2019-04-11T04:08:22.542Z,81.70
2019-04-11T04:11:06.072Z,81.80
2019-04-11T04:13:37.479Z,81.80
2019-04-11T04:16:18.751Z,81.70
2019-04-11T04:18:58.456Z,81.70
2019-04-11T04:21:47.027Z,81.50
2019-04-11T04:24:34.848Z,81.40
2019-04-11T04:27:02.103Z,81.40
2019-04-11T04:29:32.385Z,81.60
2019-04-11T04:32:02.837Z,81.40
2019-04-11T04:34:31.723Z,81.70
2019-04-11T04:37:00.812Z,81.70
2019-04-11T04:39:34.309Z,82.00
2019-04-11T04:42:08.864Z,82.40
2019-04-11T04:44:33.665Z,82.70
2019-04-11T04:47:13.638Z,82.70
2019-04-11T04:49:36.424Z,82.60
2019-04-11T04:52:09.410Z,82.60
2019-04-11T04:54:40.999Z,82.60
2019-04-11T04:57:13.117Z,82.60
2019-04-11T04:59:42.713Z,82.60
2019-04-11T05:02:12.846Z,82.60
2019-04-11T05:04:45.868Z,82.70
2019-04-11T05:07:19.562Z,82.80
2019-04-11T05:09:50.321Z,82.80
2019-04-11T05:12:20.374Z,82.80
2019-04-11T05:14:49.873Z,82.90
2019-04-11T05:17:19.255Z,83.10
2019-04-11T05:19:48.781Z,83.40
2019-04-11T05:22:17.369Z,83.20
2019-04-11T05:24:45.936Z,84.00
2019-04-11T05:27:14.701Z,85.60
2019-04-11T05:29:43.933Z,86.00
2019-04-11T05:32:13.358Z,85.90
2019-04-11T05:34:41.998Z,85.80
2019-04-11T05:37:11.111Z,86.20
2019-04-11T05:39:42.470Z,86.50
2019-04-11T05:42:11.308Z,87.10
2019-04-11T05:44:40.775Z,87.70
2019-04-11T05:47:14.678Z,87.40
2019-04-11T05:49:43.461Z,87.70
2019-04-11T05:52:17.788Z,88.90
2019-04-11T05:54:52.576Z,89.20
2019-04-11T05:57:30.291Z,89.70
2019-04-11T05:59:59.233Z,90.00
2019-04-11T06:02:29.473Z,90.10
2019-04-11T06:05:02.860Z,90.20
2019-04-11T06:07:33.231Z,90.10
2019-04-11T06:10:17.742Z,90.10
2019-04-11T06:12:48.084Z,89.50
2019-04-11T06:15:24.926Z,89.60
2019-04-11T06:17:54.547Z,89.60
2019-04-11T06:20:31.298Z,89.70
2019-04-11T06:23:19.481Z,90.00
2019-04-11T06:26:09.194Z,90.00
2019-04-11T06:28:39.788Z,90.30
2019-04-11T06:31:26.859Z,90.30
2019-04-11T06:33:57.055Z,90.30
2019-04-11T06:36:33.805Z,89.80
2019-04-11T06:39:05.054Z,89.00
2019-04-11T06:41:38.859Z,89.50
2019-04-11T06:44:21.645Z,88.80
2019-04-11T06:47:00.561Z,88.30
2019-04-11T06:49:34.188Z,87.50
2019-04-11T06:52:04.830Z,87.10
2019-04-11T06:54:35.051Z,86.70
2019-04-11T06:57:05.516Z,86.10
2019-04-11T06:59:38.676Z,85.80
2019-04-11T07:02:19.084Z,85.70
2019-04-11T07:04:47.542Z,85.30
2019-04-11T07:07:18.523Z,85.90
2019-04-11T07:09:51.507Z,85.90
2019-04-11T07:12:30.784Z,85.90
2019-04-11T07:15:16.550Z,85.90
2019-04-11T07:18:07.479Z,86.10
2019-04-11T07:20:45.917Z,85.70
2019-04-11T07:23:32.950Z,86.40
2019-04-11T07:26:21.362Z,86.40
2019-04-11T07:28:52.270Z,86.40
2019-04-11T07:31:40.150Z,85.80
2019-04-11T07:34:33.134Z,85.50
2019-04-11T07:37:19.104Z,85.40
2019-04-11T07:40:05.865Z,85.50
2019-04-11T07:42:40.971Z,85.60
2019-04-11T07:45:20.950Z,86.10
2019-04-11T07:48:08.738Z,85.80
2019-04-11T07:50:37.408Z,85.80
2019-04-11T07:53:08.668Z,85.60
2019-04-11T07:55:42.222Z,85.80
2019-04-11T07:58:21.647Z,85.50
2019-04-11T08:01:08.258Z,85.20
2019-04-11T08:03:41.177Z,84.90
2019-04-11T08:06:17.926Z,84.90
2019-04-11T08:09:02.844Z,85.00
2019-04-11T08:11:33.867Z,84.90
2019-04-11T08:14:11.224Z,84.90
2019-04-11T08:16:59.577Z,84.70
2019-04-11T08:19:30.943Z,84.80
2019-04-11T08:22:16.963Z,84.40
2019-04-11T08:24:56.565Z,84.40
2019-04-11T08:27:29.852Z,84.50
2019-04-11T08:30:02.647Z,84.60
2019-04-11T08:32:51.856Z,84.60
2019-04-11T08:35:28.328Z,84.10
2019-04-11T08:38:04.530Z,84.10
2019-04-11T08:40:53.348Z,84.10
2019-04-11T08:43:26.929Z,84.20
2019-04-11T08:46:04.671Z,84.00
2019-04-11T08:48:51.385Z,84.20
2019-04-11T08:51:21.667Z,84.40
2019-04-11T08:54:09.139Z,84.40
2019-04-11T08:56:39.493Z,84.40
2019-04-11T08:59:13.351Z,84.30
2019-04-11T09:01:42.435Z,84.90
2019-04-11T09:04:25.955Z,85.00
2019-04-11T09:06:57.175Z,84.90
2019-04-11T09:09:45.544Z,85.10
2019-04-11T09:12:16.264Z,84.60
2019-04-11T09:15:02.561Z,85.00
2019-04-11T09:17:36.673Z,85.10
2019-04-11T09:20:21.434Z,85.00
2019-04-11T09:22:55.382Z,84.90
2019-04-11T09:25:40.831Z,84.70
2019-04-11T09:28:11.400Z,84.70
2019-04-11T09:30:45.201Z,84.70
2019-04-11T09:33:31.688Z,84.40
2019-04-11T09:36:01.924Z,84.10
2019-04-11T09:38:32.799Z,84.10
2019-04-11T09:41:18.555Z,84.30
2019-04-11T09:43:48.460Z,84.30
2019-04-11T09:46:36.769Z,84.50
2019-04-11T09:49:10.791Z,83.70
2019-04-11T09:51:44.694Z,84.70
2019-04-11T09:54:23.954Z,84.20
2019-04-11T09:57:12.259Z,84.00
2019-04-11T09:59:49.645Z,84.10
2019-04-11T10:02:36.476Z,83.70
2019-04-11T10:05:07.517Z,84.00
2019-04-11T10:07:54.479Z,84.10
2019-04-11T10:10:40.246Z,84.00
2019-04-11T10:13:09.436Z,84.00
2019-04-11T10:15:59.782Z,83.50
2019-04-11T10:18:44.369Z,84.00
2019-04-11T10:21:19.377Z,84.20
2019-04-11T10:23:56.748Z,83.40
2019-04-11T10:26:42.915Z,83.40
2019-04-11T10:29:30.387Z,83.40
2019-04-11T10:32:02.961Z,83.30
2019-04-11T10:34:48.214Z,83.30
2019-04-11T10:37:19.911Z,83.20
2019-04-11T10:39:53.546Z,82.90
2019-04-11T10:42:24.924Z,82.90
2019-04-11T10:44:58.713Z,82.70
2019-04-11T10:47:29.208Z,82.80
2019-04-11T10:50:15.336Z,83.50
2019-04-11T10:52:50.859Z,82.80
2019-04-11T10:55:17.783Z,82.30
2019-04-11T10:57:48.729Z,83.10
2019-04-11T11:00:22.912Z,82.30
2019-04-11T11:03:07.813Z,82.80
2019-04-11T11:05:51.387Z,82.30
2019-04-11T11:08:21.715Z,82.10
2019-04-11T11:10:52.380Z,82.20
2019-04-11T11:13:23.597Z,82.30
2019-04-11T11:15:53.393Z,81.90
2019-04-11T11:18:42.692Z,81.40
2019-04-11T11:20:58.801Z,81.10
2019-04-11T11:23:43.466Z,81.20
2019-04-11T11:26:23.315Z,81.30
2019-04-11T11:29:13.656Z,81.40
2019-04-11T11:31:42.779Z,81.40
2019-04-11T11:34:19.793Z,81.40
2019-04-11T11:36:50.449Z,81.10
2019-04-11T11:39:20.910Z,81.10
2019-04-11T11:42:08.271Z,81.00
2019-04-11T11:44:39.159Z,80.80
2019-04-11T11:47:27.896Z,80.50
2019-04-11T11:50:01.558Z,80.60
2019-04-11T11:52:33.298Z,80.50
2019-04-11T11:55:04.131Z,80.50
2019-04-11T11:57:37.126Z,80.30
2019-04-11T12:00:14.939Z,80.70
2019-04-11T12:02:58.997Z,80.90
2019-04-11T12:05:34.729Z,80.90
2019-04-11T12:08:20.333Z,80.70
2019-04-11T12:10:56.168Z,80.30
2019-04-11T12:13:32.628Z,80.80
2019-04-11T12:16:03.735Z,80.50
2019-04-11T12:18:51.853Z,80.60
2019-04-11T12:21:28.067Z,80.70
2019-04-11T12:24:17.599Z,80.90
2019-04-11T12:26:51.899Z,79.70
2019-04-11T12:29:36.063Z,80.10
2019-04-11T12:32:06.278Z,80.10
2019-04-11T12:34:45.366Z,80.00
2019-04-11T12:37:19.778Z,79.50
2019-04-11T12:39:51.994Z,79.70
2019-04-11T12:42:22.259Z,79.20
2019-04-11T12:45:08.214Z,79.00
2019-04-11T12:47:42.427Z,78.90
2019-04-11T12:50:13.130Z,78.20
2019-04-11T12:52:43.443Z,78.10
2019-04-11T12:55:30.373Z,77.30
2019-04-11T12:58:16.322Z,77.20
2019-04-11T13:01:02.615Z,77.50
2019-04-11T13:03:46.036Z,77.80
2019-04-11T13:06:35.745Z,78.10
2019-04-11T13:09:17.453Z,77.50
2019-04-11T13:12:02.691Z,77.10
2019-04-11T13:14:41.346Z,77.50
2019-04-11T13:17:17.290Z,77.30
2019-04-11T13:20:04.835Z,76.10
2019-04-11T13:22:36.125Z,77.10
2019-04-11T13:25:24.228Z,75.90
2019-04-11T13:27:54.519Z,76.50
2019-04-11T13:30:38.753Z,76.90
2019-04-11T13:33:08.548Z,76.50
2019-04-11T13:35:42.131Z,75.80
2019-04-11T13:38:15.319Z,75.70
2019-04-11T13:40:45.621Z,74.80
2019-04-11T13:43:32.671Z,74.20
2019-04-11T13:46:18.998Z,74.60
2019-04-11T13:49:03.771Z,74.60
2019-04-11T13:51:33.988Z,74.80
2019-04-11T13:54:23.692Z,75.30
2019-04-11T13:57:09.638Z,75.30
2019-04-11T13:59:42.673Z,75.30
2019-04-11T14:02:15.925Z,75.50
2019-04-11T14:04:49.454Z,74.90
2019-04-11T14:07:23.684Z,74.50
2019-04-11T14:10:09.220Z,73.70
2019-04-11T14:12:39.393Z,73.10
2019-04-11T14:15:29.554Z,73.10
2019-04-11T14:18:16.108Z,72.70
2019-04-11T14:21:06.200Z,72.40
2019-04-11T14:23:47.905Z,72.10
2019-04-11T14:26:18.626Z,72.10
2019-04-11T14:28:49.326Z,71.20
2019-04-11T14:31:25.550Z,70.30
2019-04-11T14:33:56.122Z,70.30
2019-04-11T14:36:42.774Z,70.60
2019-04-11T14:39:13.010Z,71.40
2019-04-11T14:41:55.224Z,71.80
2019-04-11T14:44:26.999Z,71.70
2019-04-11T14:46:57.280Z,72.30
2019-04-11T14:49:27.127Z,72.40
2019-04-11T14:52:03.106Z,72.50
2019-04-11T14:54:33.342Z,72.20
2019-04-11T14:57:06.387Z,72.40
2019-04-11T14:59:39.622Z,72.20
2019-04-11T15:02:13.237Z,71.70
2019-04-11T15:04:49.464Z,72.00
2019-04-11T15:07:28.219Z,70.90
2019-04-11T15:10:00.939Z,70.30
2019-04-11T15:12:31.913Z,68.90
2019-04-11T15:15:10.700Z,70.10
2019-04-11T15:17:42.454Z,70.40
2019-04-11T15:20:14.469Z,69.60
2019-04-11T15:22:47.649Z,69.50
2019-04-11T15:25:20.876Z,69.40
2019-04-11T15:28:03.641Z,69.70
2019-04-11T15:30:50.159Z,68.90
2019-04-11T15:33:24.699Z,68.00
2019-04-11T15:35:57.697Z,65.70
2019-04-11T15:38:29.651Z,69.00
2019-04-11T15:40:59.892Z,68.10
2019-04-11T15:43:46.662Z,68.60
2019-04-11T15:46:23.184Z,68.00
2019-04-11T15:49:19.938Z,68.10
2019-04-11T15:51:41.465Z,68.70
2019-04-11T15:54:11.754Z,68.80
2019-04-11T15:56:45.350Z,69.80
2019-04-11T15:59:15.553Z,70.10
2019-04-11T16:02:01.875Z,69.90
2019-04-11T16:04:32.171Z,69.50
2019-04-11T16:07:13.585Z,70.10
2019-04-11T16:09:44.042Z,69.80
2019-04-11T16:12:16.318Z,69.60
2019-04-11T16:14:44.580Z,69.30
2019-04-11T16:17:29.354Z,68.40
2019-04-11T16:19:59.521Z,68.00
2019-04-11T16:22:46.742Z,67.70
2019-04-11T16:25:17.609Z,67.50
2019-04-11T16:27:50.783Z,67.90
2019-04-11T16:30:23.392Z,68.30
2019-04-11T16:33:14.580Z,68.90
2019-04-11T16:35:56.826Z,68.90
2019-04-11T16:38:29.658Z,69.60
2019-04-11T16:41:17.262Z,69.30
2019-04-11T16:43:47.470Z,69.30
2019-04-11T16:46:34.028Z,69.30
2019-04-11T16:49:02.628Z,69.30
2019-04-11T16:51:31.465Z,69.60
2019-04-11T16:54:04.554Z,69.30
2019-04-11T16:56:36.229Z,69.70
2019-04-11T16:59:04.881Z,69.20
2019-04-11T17:01:33.426Z,69.00
2019-04-11T17:04:02.037Z,68.70
2019-04-11T17:06:32.262Z,68.50
2019-04-11T17:09:08.300Z,68.30
2019-04-11T17:11:39.267Z,67.60
2019-04-11T17:14:07.852Z,67.60
2019-04-11T17:16:36.515Z,67.10
2019-04-11T17:19:06.282Z,67.10
2019-04-11T17:21:43.008Z,66.80
2019-04-11T17:24:19.379Z,66.90
2019-04-11T17:26:48.277Z,67.80
2019-04-11T17:29:20.307Z,68.10
2019-04-11T17:31:48.903Z,68.40
2019-04-11T17:34:17.506Z,68.60
2019-04-11T17:36:46.169Z,68.80
2019-04-11T17:39:15.059Z,69.70
2019-04-11T17:41:46.322Z,69.60
2019-04-11T17:44:14.919Z,69.20
2019-04-11T17:46:43.845Z,69.10
2019-04-11T17:49:15.435Z,69.10
2019-04-11T17:51:55.683Z,69.50
2019-04-11T17:54:20.128Z,69.50
2019-04-11T17:56:48.855Z,69.50
2019-04-11T17:59:17.537Z,69.80
2019-04-11T18:01:46.161Z,70.10
2019-04-11T18:04:14.841Z,70.50
2019-04-11T18:06:51.846Z,71.10
2019-04-11T18:09:25.582Z,71.10
2019-04-11T18:11:55.903Z,70.80
2019-04-11T18:14:22.387Z,71.10
2019-04-11T18:16:51.631Z,70.60
2019-04-11T18:19:24.111Z,70.90
2019-04-11T18:21:52.850Z,70.90
2019-04-11T18:24:22.353Z,71.10
2019-04-11T18:26:51.930Z,70.70
2019-04-11T18:29:23.015Z,70.60
2019-04-11T18:31:51.640Z,71.00
2019-04-11T18:34:20.363Z,71.10
2019-04-11T18:36:51.994Z,70.80
2019-04-11T18:39:28.607Z,71.00
2019-04-11T18:42:01.910Z,71.10
2019-04-11T18:44:31.752Z,71.30
2019-04-11T18:47:03.698Z,71.30
2019-04-11T18:49:32.360Z,71.40
2019-04-11T18:52:01.223Z,71.20
2019-04-11T18:54:29.828Z,71.20
2019-04-11T18:57:02.749Z,71.30
2019-04-11T18:59:35.799Z,71.30
2019-04-11T19:02:04.725Z,71.20
2019-04-11T19:04:36.038Z,71.30
2019-04-11T19:07:06.230Z,71.60
2019-04-11T19:09:34.870Z,71.50
2019-04-11T19:12:22.355Z,71.70
2019-04-11T19:14:40.957Z,71.70
2019-04-11T19:17:09.597Z,71.70
2019-04-11T19:19:40.969Z,71.90
2019-04-11T19:22:09.667Z,72.00
2019-04-11T19:24:41.779Z,72.00
2019-04-11T19:27:08.483Z,72.10
2019-04-11T19:29:38.885Z,72.20
2019-04-11T19:32:08.991Z,72.20
2019-04-11T19:34:39.204Z,72.30
2019-04-11T19:37:12.699Z,72.30
2019-04-11T19:39:46.771Z,72.30
2019-04-11T19:42:19.668Z,72.30
2019-04-11T19:44:49.645Z,72.30
2019-04-11T19:47:21.427Z,72.50
2019-04-11T19:49:50.155Z,72.60
2019-04-11T19:52:21.303Z,72.70
2019-04-11T19:54:49.944Z,72.80
2019-04-11T19:57:20.233Z,72.60
2019-04-11T19:59:48.819Z,72.70
2019-04-11T20:02:17.408Z,72.60
2019-04-11T20:04:46.677Z,72.50
2019-04-11T20:07:18.898Z,72.50
2019-04-11T20:09:47.510Z,72.80
2019-04-11T20:12:16.185Z,72.80
2019-04-11T20:14:46.358Z,73.00
2019-04-11T20:17:19.829Z,73.10
2019-04-11T20:20:00.925Z,73.10
2019-04-11T20:22:18.756Z,73.10
2019-04-11T20:24:51.779Z,73.00
2019-04-11T20:27:22.877Z,73.10
2019-04-11T20:29:55.079Z,73.10
2019-04-11T20:32:33.061Z,72.90
2019-04-11T20:35:09.410Z,73.10
2019-04-11T20:37:39.377Z,73.20
2019-04-11T20:40:06.450Z,73.20
2019-04-11T20:42:35.122Z,73.10
2019-04-11T20:45:07.554Z,73.10
2019-04-11T20:47:36.108Z,73.20
2019-04-11T20:50:07.738Z,73.30
2019-04-11T20:52:35.868Z,73.40
2019-04-11T20:55:08.909Z,73.20
2019-04-11T20:57:37.386Z,73.40
2019-04-11T21:00:07.543Z,73.40
2019-04-11T21:02:36.215Z,74.30
2019-04-11T21:05:05.614Z,73.60
2019-04-11T21:07:34.262Z,73.80
2019-04-11T21:10:03.974Z,73.80
2019-04-11T21:12:37.266Z,73.80
2019-04-11T21:15:13.553Z,73.70
2019-04-11T21:17:43.626Z,73.80
2019-04-11T21:20:15.239Z,73.70
2019-04-11T21:22:44.831Z,73.80
2019-04-11T21:25:13.461Z,73.70
2019-04-11T21:27:42.026Z,73.80
2019-04-11T21:30:11.157Z,73.90
2019-04-11T21:32:39.798Z,73.80
2019-04-11T21:35:08.499Z,73.60
2019-04-11T21:37:37.147Z,73.50
2019-04-11T21:40:07.158Z,73.50
2019-04-11T21:42:36.669Z,73.70
2019-04-11T21:45:06.875Z,73.60
2019-04-11T21:47:37.225Z,73.50
2019-04-11T21:50:09.649Z,73.70
2019-04-11T21:52:37.892Z,73.60
2019-04-11T21:55:06.783Z,73.60
2019-04-11T21:57:35.329Z,73.70
2019-04-11T22:00:09.611Z,73.60
2019-04-11T22:02:38.163Z,73.40
2019-04-11T22:05:06.963Z,73.50
2019-04-11T22:07:37.158Z,73.40
2019-04-11T22:10:08.011Z,73.40
2019-04-11T22:12:40.539Z,73.40
2019-04-11T22:15:17.883Z,73.40
2019-04-11T22:17:47.243Z,73.70
2019-04-11T22:20:16.671Z,73.70
2019-04-11T22:22:45.927Z,73.70
2019-04-11T22:25:14.683Z,73.70
2019-04-11T22:27:43.333Z,73.70
2019-04-11T22:30:13.231Z,73.70
2019-04-11T22:32:43.422Z,73.60
2019-04-11T22:35:12.220Z,73.70
2019-04-11T22:37:46.569Z,73.50
2019-04-11T22:40:15.157Z,73.60
2019-04-11T22:42:43.701Z,73.80
2019-04-11T22:45:12.419Z,73.80
2019-04-11T22:47:41.021Z,73.70
2019-04-11T22:50:10.606Z,73.70
2019-04-11T22:52:39.885Z,73.70
2019-04-11T22:55:11.252Z,73.70
2019-04-11T22:57:40.845Z,73.70
2019-04-11T23:00:14.925Z,73.50
2019-04-11T23:02:42.581Z,73.60
2019-04-11T23:05:11.281Z,73.70
2019-04-11T23:07:39.830Z,73.80
2019-04-11T23:10:11.448Z,73.90
2019-04-11T23:12:40.012Z,74.00
2019-04-11T23:15:08.706Z,74.00
2019-04-11T23:17:38.105Z,74.00
2019-04-11T23:20:11.898Z,74.30
2019-04-11T23:22:42.841Z,74.10
2019-04-11T23:25:10.469Z,74.20
2019-04-11T23:27:40.572Z,74.30
2019-04-11T23:30:12.378Z,74.10
2019-04-11T23:32:40.966Z,74.10
2019-04-11T23:35:12.317Z,74.00
2019-04-11T23:37:51.175Z,74.00
2019-04-11T23:40:21.745Z,74.90
2019-04-11T23:42:52.054Z,74.30
2019-04-11T23:45:24.982Z,74.30
2019-04-11T23:47:54.426Z,74.00
2019-04-11T23:50:25.234Z,74.10
2019-04-11T23:52:57.063Z,74.00
2019-04-11T23:55:23.474Z,74.00
2019-04-11T23:57:52.047Z,74.20
